This is the latest recevied weather packets stored in our database for station/object KMASWX. If no packets are shown the sender has not sent any weather packets the latest 10 day(s).
| Time | Temp. | Humidity | Pressure | Rain* | Wind** | Luminosity | Snow |
|---|---|---|---|---|---|---|---|
| 1778113889 | 22.78° C | 38% | - | 0 mm | - | - | - |
| 1778113585 | 22.78° C | 39% | - | 0 mm | - | - | - |
| 1778113281 | 21.67° C | 42% | - | 0 mm | - | - | - |
| 1778112977 | 21.11° C | 42% | - | 0 mm | - | - | - |
| 1778112674 | 20.56° C | 45% | - | 0 mm | - | - | - |
| 1778112367 | 20.56° C | 47% | - | 0 mm | - | - | - |
| 1778111760 | 22.22° C | 37% | - | 0 mm | - | - | - |
| 1778111453 | 22.78° C | 35% | - | 0 mm | - | - | - |
| 1778110847 | 22.78° C | 36% | - | 0 mm | - | - | - |
| 1778110235 | 26.67° C | 21% | - | 0 mm | - | - | - |
| 1778109932 | 27.78° C | 21% | - | 0 mm | - | - | - |
| 1778109322 | 27.22° C | 22% | - | 0 mm | - | - | - |
| 1778109017 | 27.78° C | 19% | - | 0 mm | - | - | - |
| 1778108712 | 28.33° C | 22% | - | 0 mm | - | - | - |
| 1778108406 | 28.33° C | 21% | - | 0 mm | - | - | - |
| 1778108102 | 28.89° C | 20% | - | 0 mm | - | - | - |
| 1778107795 | 29.44° C | 20% | - | 0 mm | - | - | - |
| 1778107492 | 28.89° C | 22% | - | 0 mm | - | - | - |
| 1778107188 | 28.33° C | 21% | - | 0 mm | - | - | - |
| 1778106885 | 28.89° C | 21% | - | 0 mm | - | - | - |
| 1778106578 | 28.33° C | 21% | - | 0 mm | - | - | - |
| 1778106275 | 27.78° C | 22% | - | 0 mm | - | - | - |
| 1778105971 | 28.33° C | 21% | - | 0 mm | - | - | - |
| 1778105668 | 28.33° C | 22% | - | 0 mm | - | - | - |
| 1778105364 | 27.78° C | 21% | - | 0 mm | - | - | - |
* Rain latest 24 hours (hover to see other rain measurements)
** Current wind speed in m/s (hover to see current wind gust speed)